Time;durP1;ratioP1;P1;durP2;ratioP2;P2;SDS_P1;SDS_P2;PMS_P1;PMS_P2;Temp;Humidity;BMP_temperature;BMP_pressure;BME280_temperature;BME280_humidity;BME280_pressure;Samples;Min_cycle;Max_cycle;Signal;HPM_P1;HPM_P2
2022/04/06 00:01:22;;;;;;;;;;;;;;;20.44;38.67;100252.16;7279727;19;152006;-57
2022/04/06 00:03:49;;;;;;;;;;;;;;;20.41;38.53;100246.03;7280954;19;153511;-57
2022/04/06 00:06:16;;;;;;;;;;;;;;;20.40;38.75;100244.38;7277850;19;152790;-57
2022/04/06 00:09:03;;;;;;;;;;;;;;;20.40;38.93;100241.56;7280460;19;152132;-58
2022/04/06 00:11:30;;;;;;;;;;;;;;;20.39;39.20;100239.94;7285049;19;152793;-58
2022/04/06 00:13:57;;;;;;;;;;;;;;;20.37;39.15;100233.81;7279229;19;152352;-58
2022/04/06 00:16:24;;;;;;;;;;;;;;;20.36;39.28;100220.94;7279304;19;153277;-58
2022/04/06 00:18:51;;;;;;;;;;;;;;;20.35;39.33;100232.50;7276779;19;154081;-57
2022/04/06 00:21:19;;;;;;;;;;;;;;;20.35;39.41;100216.47;7277768;19;152331;-57
2022/04/06 00:23:45;;;;;;;;;;;;;;;20.34;39.79;100219.59;7280126;19;153310;-57
2022/04/06 00:26:13;;;;;;;;;;;;;;;20.33;39.75;100206.72;7278036;19;154606;-58
2022/04/06 00:28:39;;;;;;;;;;;;;;;20.31;39.44;100201.44;7279350;19;151655;-57
2022/04/06 00:31:06;;;;;;;;;;;;;;;20.29;39.89;100195.31;7277603;19;153659;-57
2022/04/06 00:33:33;;;;;;;;;;;;;;;20.31;39.81;100203.41;7287698;19;153335;-57
2022/04/06 00:35:59;;;;;;;;;;;;;;;20.28;40.32;100201.22;7279915;19;152431;-57
2022/04/06 00:38:26;;;;;;;;;;;;;;;20.24;40.00;100198.25;7277001;19;153437;-57
2022/04/06 00:40:53;;;;;;;;;;;;;;;20.25;39.96;100193.47;7279421;19;151892;-57
2022/04/06 00:43:19;;;;;;;;;;;;;;;20.25;40.16;100194.31;7280291;19;152640;-57
2022/04/06 00:45:47;;;;;;;;;;;;;;;20.21;40.12;100181.25;7276539;19;153332;-57
2022/04/06 00:48:14;;;;;;;;;;;;;;;20.19;40.29;100186.34;7280967;19;151963;-57
2022/04/06 00:50:42;;;;;;;;;;;;;;;20.17;40.24;100180.25;7277732;19;152024;-58
2022/04/06 00:53:11;;;;;;;;;;;;;;;20.15;40.39;100180.56;7284753;19;153305;-57
2022/04/06 00:55:39;;;;;;;;;;;;;;;20.14;40.26;100175.28;7278721;19;152584;-58
2022/04/06 00:58:06;;;;;;;;;;;;;;;20.14;41.04;100164.06;7278255;19;153991;-58
2022/04/06 01:00:33;;;;;;;;;;;;;;;20.11;40.75;100175.94;7280208;19;151987;-58
2022/04/06 01:03:00;;;;;;;;;;;;;;;20.12;41.14;100167.22;7275433;19;154207;-58
2022/04/06 01:05:26;;;;;;;;;;;;;;;20.08;41.24;100170.97;7276967;19;154894;-58
2022/04/06 01:07:55;;;;;;;;;;;;;;;20.06;40.81;100165.69;7277337;19;153630;-59
2022/04/06 01:10:22;;;;;;;;;;;;;;;20.04;41.16;100165.16;7277306;19;153639;-59
2022/04/06 01:12:49;;;;;;;;;;;;;;;20.03;41.21;100162.72;7275431;19;153771;-59
2022/04/06 01:15:16;;;;;;;;;;;;;;;20.02;41.22;100161.06;7287678;19;152000;-60
2022/04/06 01:17:43;;;;;;;;;;;;;;;19.99;41.31;100160.53;7277883;19;153230;-59
2022/04/06 01:20:11;;;;;;;;;;;;;;;19.98;41.31;100156.09;7278668;19;152463;-60
2022/04/06 01:22:38;;;;;;;;;;;;;;;19.97;41.06;100154.44;7274810;19;153406;-59
2022/04/06 01:25:05;;;;;;;;;;;;;;;19.96;41.15;100144.38;7274452;19;154480;-59
2022/04/06 01:27:33;;;;;;;;;;;;;;;19.97;41.24;100150.81;7277828;19;151756;-59
2022/04/06 01:29:59;;;;;;;;;;;;;;;19.96;41.12;100152.78;7278468;19;153322;-59
2022/04/06 01:32:27;;;;;;;;;;;;;;;19.93;41.29;100147.00;7276713;19;153266;-59
2022/04/06 01:34:54;;;;;;;;;;;;;;;19.92;40.98;100157.38;7278370;19;151775;-59
2022/04/06 01:37:21;;;;;;;;;;;;;;;19.89;41.20;100129.19;7282333;19;153369;-60
2022/04/06 01:39:49;;;;;;;;;;;;;;;19.86;40.75;100133.44;7276992;19;151842;-60
2022/04/06 01:42:17;;;;;;;;;;;;;;;19.87;41.13;100126.69;7275190;19;152656;-60
2022/04/06 01:44:49;;;;;;;;;;;;;;;19.86;40.92;100129.81;7276206;19;153753;-59
2022/04/06 01:47:17;;;;;;;;;;;;;;;19.86;40.75;100113.00;7278351;19;151954;-59
2022/04/06 01:52:29;;;;;;;;;;;;;;;19.82;41.08;100112.00;7283486;19;154587;-59
2022/04/06 01:55:03;;;;;;;;;;;;;;;19.82;41.02;100112.00;7284797;19;151766;-58
2022/04/06 01:57:30;;;;;;;;;;;;;;;19.81;40.82;100104.72;7280205;19;152590;-59
2022/04/06 01:59:57;;;;;;;;;;;;;;;19.78;41.29;100094.16;7288430;19;153936;-59
2022/04/06 02:02:25;;;;;;;;;;;;;;;19.76;41.52;100111.28;7282434;19;152784;-58
2022/04/06 02:04:52;;;;;;;;;;;;;;;19.79;41.72;100095.81;7282910;19;153976;-59
2022/04/06 02:07:19;;;;;;;;;;;;;;;19.75;40.98;100095.66;7284873;19;152083;-59
2022/04/06 02:09:46;;;;;;;;;;;;;;;19.74;41.05;100084.75;7283552;19;152325;-59
2022/04/06 02:12:13;;;;;;;;;;;;;;;19.73;41.56;100083.09;7282242;19;153310;-59
2022/04/06 02:14:43;;;;;;;;;;;;;;;19.72;41.61;100084.25;7280852;19;151632;-59
2022/04/06 02:17:15;;;;;;;;;;;;;;;19.67;41.18;100074.00;7282717;19;154289;-58
2022/04/06 02:19:42;;;;;;;;;;;;;;;19.66;41.59;100075.19;7281187;19;153949;-58
2022/04/06 02:22:09;;;;;;;;;;;;;;;19.64;41.27;100077.47;7289793;19;152530;-58
2022/04/06 02:24:36;;;;;;;;;;;;;;;19.68;41.86;100067.25;7280482;19;154021;-58
2022/04/06 02:27:07;;;;;;;;;;;;;;;19.67;41.56;100062.78;7282485;19;152450;-59
2022/04/06 02:29:34;;;;;;;;;;;;;;;19.65;41.57;100050.28;7283187;19;152462;-59
2022/04/06 02:32:01;;;;;;;;;;;;;;;19.64;41.89;100048.63;7279954;19;153894;-60
2022/04/06 02:34:28;;;;;;;;;;;;;;;19.61;41.60;100047.28;7283417;19;152046;-60
2022/04/06 02:36:55;;;;;;;;;;;;;;;19.59;41.65;100040.34;7280862;19;153461;-60
2022/04/06 02:39:22;;;;;;;;;;;;;;;19.57;41.47;100037.06;7280178;19;154230;-60
2022/04/06 02:41:48;;;;;;;;;;;;;;;19.56;41.51;100038.22;7282857;19;151914;-59
2022/04/06 02:44:15;;;;;;;;;;;;;;;19.51;41.79;100031.59;7290796;19;152724;-61
2022/04/06 02:46:44;;;;;;;;;;;;;;;19.51;41.98;100030.78;7283100;19;151853;-60
2022/04/06 02:49:10;;;;;;;;;;;;;;;19.51;41.60;100025.16;7283077;19;152949;-60
2022/04/06 02:51:37;;;;;;;;;;;;;;;19.54;41.78;100016.09;7281071;19;153977;-58
2022/04/06 02:54:04;;;;;;;;;;;;;;;19.57;42.26;100021.09;7280958;19;152012;-58
2022/04/06 02:56:31;;;;;;;;;;;;;;;19.51;41.85;100006.38;7281357;19;153465;-58
2022/04/06 02:58:58;;;;;;;;;;;;;;;19.48;41.98;100014.63;7279240;19;153928;-57
2022/04/06 03:01:25;;;;;;;;;;;;;;;19.50;41.89;100001.94;7280796;19;151958;-59
2022/04/06 03:03:51;;;;;;;;;;;;;;;19.50;42.20;99993.53;7285480;19;152919;-58
2022/04/06 03:06:18;;;;;;;;;;;;;;;19.46;41.96;99992.53;7283292;19;151797;-58
2022/04/06 03:08:45;;;;;;;;;;;;;;;19.43;42.05;99984.78;7283242;19;152748;-58
2022/04/06 03:11:12;;;;;;;;;;;;;;;19.40;42.25;99978.94;7279947;19;153625;-58
2022/04/06 03:13:39;;;;;;;;;;;;;;;19.39;42.49;99968.91;7282786;19;151654;-57
2022/04/06 03:16:06;;;;;;;;;;;;;;;19.38;42.60;99961.66;7283674;19;152942;-58
2022/04/06 03:18:33;;;;;;;;;;;;;;;19.37;42.16;99968.41;7281599;19;154152;-57
2022/04/06 03:20:59;;;;;;;;;;;;;;;19.38;42.36;99959.69;7282828;19;151957;-57
2022/04/06 03:23:26;;;;;;;;;;;;;;;19.40;42.84;99970.53;7281503;19;152633;-57
2022/04/06 03:25:53;;;;;;;;;;;;;;;19.39;42.40;99952.94;7288409;19;156607;-57
2022/04/06 03:28:20;;;;;;;;;;;;;;;19.38;42.30;99958.84;7280628;19;152717;-57
2022/04/06 03:30:46;;;;;;;;;;;;;;;19.33;42.17;99947.78;7278093;19;153776;-56
2022/04/06 03:33:15;;;;;;;;;;;;;;;19.30;42.26;99945.66;7280976;19;151716;-57
2022/04/06 03:35:42;;;;;;;;;;;;;;;19.24;41.77;99935.75;7277526;19;153342;-57
2022/04/06 03:38:09;;;;;;;;;;;;;;;19.26;42.05;99939.84;7280924;19;154023;-57
2022/04/06 03:40:38;;;;;;;;;;;;;;;19.21;41.57;99933.59;7281260;19;152383;-56
2022/04/06 03:43:05;;;;;;;;;;;;;;;19.19;41.87;99933.09;7279834;19;153492;-56
2022/04/06 03:45:31;;;;;;;;;;;;;;;19.17;41.25;99930.59;7280423;19;154794;-57
2022/04/06 03:47:58;;;;;;;;;;;;;;;18.94;41.23;99917.84;7287775;19;151701;-58
2022/04/06 03:50:25;;;;;;;;;;;;;;;19.04;41.72;99918.38;7279970;19;153793;-59
2022/04/06 03:52:52;;;;;;;;;;;;;;;19.07;41.63;99917.75;7280814;19;151760;-58
2022/04/06 03:55:18;;;;;;;;;;;;;;;19.05;41.98;99916.41;7282189;19;153161;-58
2022/04/06 03:57:45;;;;;;;;;;;;;;;19.01;42.04;99905.03;7280664;19;153982;-58
2022/04/06 04:00:12;;;;;;;;;;;;;;;19.01;42.33;99902.22;7282533;19;151753;-59
2022/04/06 04:02:39;;;;;;;;;;;;;;;19.00;42.21;99903.38;7281235;19;152161;-58
2022/04/06 04:05:06;;;;;;;;;;;;;;;19.00;42.08;99902.53;7278172;19;154481;-58
2022/04/06 04:07:37;;;;;;;;;;;;;;;19.04;42.30;99895.97;7280571;19;152388;-58
2022/04/06 04:10:05;;;;;;;;;;;;;;;19.01;42.14;99868.63;7286164;19;152684;-59
2022/04/06 04:12:33;;;;;;;;;;;;;;;19.04;42.44;99873.56;7276815;19;151896;-58
2022/04/06 04:14:59;;;;;;;;;;;;;;;19.00;42.59;99868.94;7281337;19;152497;-58
2022/04/06 04:17:26;;;;;;;;;;;;;;;19.03;42.57;99857.13;7279031;19;154819;-58
2022/04/06 04:19:56;;;;;;;;;;;;;;;18.97;42.72;99864.84;7280270;19;152282;-58
2022/04/06 04:22:24;;;;;;;;;;;;;;;19.00;42.70;99857.75;7279773;19;152965;-61
2022/04/06 04:24:50;;;;;;;;;;;;;;;18.99;42.62;99867.28;7279329;19;152657;-58
2022/04/06 04:27:18;;;;;;;;;;;;;;;19.01;42.91;99859.41;7278829;19;151692;-57
2022/04/06 04:29:46;;;;;;;;;;;;;;;19.00;42.68;99868.94;7279614;19;153327;-57
2022/04/06 04:32:16;;;;;;;;;;;;;;;18.97;42.70;99873.25;7286808;19;152820;-57
2022/04/06 04:34:43;;;;;;;;;;;;;;;19.00;42.79;99872.56;7280918;19;154299;-57
2022/04/06 04:37:10;;;;;;;;;;;;;;;18.95;43.08;99869.94;7277145;19;153743;-57
2022/04/06 04:39:37;;;;;;;;;;;;;;;18.98;43.24;99868.47;7277875;19;151931;-58
2022/04/06 04:42:04;;;;;;;;;;;;;;;18.94;43.28;99856.28;7280374;19;154326;-58
2022/04/06 04:44:31;;;;;;;;;;;;;;;18.98;43.20;99849.69;7277319;19;154137;-58
2022/04/06 04:46:58;;;;;;;;;;;;;;;18.97;43.44;99853.66;7278619;19;152202;-57
2022/04/06 04:49:26;;;;;;;;;;;;;;;19.02;43.59;99855.47;7280599;19;152726;-58
2022/04/06 04:51:52;;;;;;;;;;;;;;;19.08;44.07;99838.19;7280266;19;152318;-58
2022/04/06 04:54:24;;;;;;;;;;;;;;;19.12;44.03;99829.97;7286358;19;152097;-57
2022/04/06 04:56:55;;;;;;;;;;;;;;;19.17;43.72;99829.00;7278714;19;153680;-58
2022/04/06 04:59:22;;;;;;;;;;;;;;;19.21;44.00;99838.38;7276971;19;152029;-58
2022/04/06 05:01:48;;;;;;;;;;;;;;;19.26;43.85;99829.84;7278635;19;151977;-58
2022/04/06 05:04:15;;;;;;;;;;;;;;;19.32;43.93;99839.72;7276337;19;155219;-58
2022/04/06 05:06:43;;;;;;;;;;;;;;;19.38;43.80;99811.22;7279803;19;151742;-58
2022/04/06 05:09:10;;;;;;;;;;;;;;;19.44;43.78;99818.31;7280544;19;153022;-57
2022/04/06 05:11:36;;;;;;;;;;;;;;;19.52;43.62;99799.91;7279344;19;153297;-58
2022/04/06 05:14:03;;;;;;;;;;;;;;;19.59;43.73;99810.59;7287152;19;151953;-57
2022/04/06 05:16:31;;;;;;;;;;;;;;;19.68;43.83;99808.59;7278575;19;153442;-58
2022/04/06 05:19:00;;;;;;;;;;;;;;;19.76;43.77;99807.81;7278476;19;152293;-58
2022/04/06 05:21:27;;;;;;;;;;;;;;;19.83;44.04;99805.31;7276448;19;153951;-57
2022/04/06 05:23:54;;;;;;;;;;;;;;;19.88;43.70;99807.94;7273960;19;155655;-57
2022/04/06 05:26:21;;;;;;;;;;;;;;;19.96;43.91;99796.72;7278099;19;151783;-57
2022/04/06 05:28:47;;;;;;;;;;;;;;;20.04;44.28;99789.44;7276975;19;152640;-57
2022/04/06 05:31:14;;;;;;;;;;;;;;;20.11;43.93;99802.97;7277479;19;153908;-57
2022/04/06 05:33:41;;;;;;;;;;;;;;;20.16;43.37;99792.41;7278776;19;152046;-57
2022/04/06 05:36:08;;;;;;;;;;;;;;;20.22;43.65;99791.03;7281900;19;152558;-57
2022/04/06 05:38:35;;;;;;;;;;;;;;;20.30;43.38;99786.59;7278433;19;151760;-57
2022/04/06 05:41:02;;;;;;;;;;;;;;;20.36;43.47;99799.28;7277855;19;153669;-57
2022/04/06 05:43:29;;;;;;;;;;;;;;;20.41;43.13;99788.69;7275689;19;154125;-57
2022/04/06 05:45:56;;;;;;;;;;;;;;;20.47;43.59;99791.31;7276751;19;152260;-57
2022/04/06 05:48:22;;;;;;;;;;;;;;;20.53;42.95;99784.38;7279011;19;152876;-57
2022/04/06 05:50:50;;;;;;;;;;;;;;;20.59;43.51;99777.41;7274356;19;154461;-58
2022/04/06 05:53:16;;;;;;;;;;;;;;;20.66;43.76;99777.72;7276373;19;151795;-58
2022/04/06 05:55:45;;;;;;;;;;;;;;;20.71;42.90;99775.53;7277824;19;152481;-58
2022/04/06 05:58:12;;;;;;;;;;;;;;;20.76;43.45;99774.50;7282820;19;154316;-59
2022/04/06 06:00:39;;;;;;;;;;;;;;;20.81;43.19;99768.69;7278127;19;152559;-58
2022/04/06 06:03:06;;;;;;;;;;;;;;;20.86;43.12;99760.06;7273264;19;153210;-59
2022/04/06 06:05:32;;;;;;;;;;;;;;;20.90;43.53;99757.41;7278154;19;152069;-58
2022/04/06 06:07:59;;;;;;;;;;;;;;;20.98;43.53;99759.34;7276163;19;153250;-58
2022/04/06 06:10:26;;;;;;;;;;;;;;;21.02;43.38;99755.53;7276966;19;153531;-58
2022/04/06 06:12:53;;;;;;;;;;;;;;;21.06;43.29;99744.44;7274667;19;151759;-58
2022/04/06 06:15:19;;;;;;;;;;;;;;;21.11;42.91;99759.09;7274173;19;154148;-58
2022/04/06 06:17:46;;;;;;;;;;;;;;;21.16;42.71;99744.88;7276464;19;153278;-58
2022/04/06 06:20:13;;;;;;;;;;;;;;;21.18;42.59;99734.13;7284033;19;151726;-59
2022/04/06 06:22:40;;;;;;;;;;;;;;;21.23;42.62;99738.72;7273125;19;153645;-58
2022/04/06 06:25:07;;;;;;;;;;;;;;;21.29;42.40;99751.41;7271688;19;152204;-58
2022/04/06 06:27:43;;;;;;;;;;;;;;;21.33;42.67;99741.09;7277503;19;153431;-58
2022/04/06 06:30:16;;;;;;;;;;;;;;;21.37;42.76;99741.25;7273431;19;152509;-58
2022/04/06 06:32:42;;;;;;;;;;;;;;;21.43;42.52;99731.44;7276619;19;151603;-58
2022/04/06 06:35:09;;;;;;;;;;;;;;;21.47;42.13;99726.78;7277682;19;155625;-58
2022/04/06 06:37:44;;;;;;;;;;;;;;;21.50;41.97;99729.72;7283103;19;153325;-58
2022/04/06 06:40:11;;;;;;;;;;;;;;;21.54;42.55;99721.41;7283786;19;152032;-58
2022/04/06 06:42:37;;;;;;;;;;;;;;;21.56;42.57;99722.72;7287964;19;152875;-58
2022/04/06 06:45:04;;;;;;;;;;;;;;;21.59;42.51;99724.00;7279488;19;152770;-58
2022/04/06 06:47:31;;;;;;;;;;;;;;;21.61;42.50;99719.69;7283329;19;153073;-59
2022/04/06 06:49:58;;;;;;;;;;;;;;;21.64;42.34;99709.75;7281657;19;153950;-60
2022/04/06 06:52:25;;;;;;;;;;;;;;;21.65;42.80;99709.41;7282810;19;152051;-60
2022/04/06 06:54:51;;;;;;;;;;;;;;;21.66;42.62;99710.22;7281378;19;153450;-60
2022/04/06 06:57:18;;;;;;;;;;;;;;;21.67;42.01;99707.06;7279702;19;154809;-60
2022/04/06 06:59:45;;;;;;;;;;;;;;;21.67;42.04;99704.25;7282248;19;151843;-59
2022/04/06 07:02:14;;;;;;;;;;;;;;;21.67;41.92;99721.09;7282038;19;154666;-60
2022/04/06 07:04:41;;;;;;;;;;;;;;;21.67;42.01;99715.47;7287781;19;151555;-58
2022/04/06 07:07:07;;;;;;;;;;;;;;;21.67;42.15;99715.47;7282285;19;153368;-58
2022/04/06 07:09:34;;;;;;;;;;;;;;;21.66;41.26;99713.03;7280236;19;155430;-58
2022/04/06 07:12:01;;;;;;;;;;;;;;;21.66;42.12;99702.63;7279866;19;152221;-58
2022/04/06 07:14:28;;;;;;;;;;;;;;;21.66;41.76;99705.44;7279326;19;153387;-58
2022/04/06 07:16:54;;;;;;;;;;;;;;;21.67;42.13;99703.41;7282409;19;153422;-58
2022/04/06 07:19:21;;;;;;;;;;;;;;;21.66;42.07;99708.25;7282671;19;152241;-59
2022/04/06 07:21:48;;;;;;;;;;;;;;;21.64;41.56;99701.31;7279799;19;152621;-59
2022/04/06 07:24:15;;;;;;;;;;;;;;;21.65;41.99;99702.97;7287316;19;153903;-59
2022/04/06 07:26:42;;;;;;;;;;;;;;;21.63;42.05;99692.06;7281918;19;153868;-58
2022/04/06 07:29:11;;;;;;;;;;;;;;;21.61;42.04;99688.78;7281260;19;153995;-58
2022/04/06 07:31:38;;;;;;;;;;;;;;;21.62;42.50;99693.22;7282024;19;151800;-58
2022/04/06 07:34:05;;;;;;;;;;;;;;;21.60;42.67;99689.94;7282787;19;152605;-58
2022/04/06 07:36:35;;;;;;;;;;;;;;;21.59;42.38;99677.03;7282055;19;153189;-57
2022/04/06 07:39:03;;;;;;;;;;;;;;;21.58;42.51;99669.78;7280201;19;151694;-58
2022/04/06 07:41:30;;;;;;;;;;;;;;;21.57;42.41;99678.56;7281153;19;153287;-59
2022/04/06 07:43:58;;;;;;;;;;;;;;;21.58;42.70;99681.03;7280144;19;154100;-58
2022/04/06 07:46:25;;;;;;;;;;;;;;;21.54;43.08;99677.25;7289370;19;151816;-58
2022/04/06 07:48:51;;;;;;;;;;;;;;;21.54;42.66;99676.44;7280746;19;152053;-58
2022/04/06 07:51:18;;;;;;;;;;;;;;;21.50;42.57;99675.50;7280213;19;151632;-58
2022/04/06 07:53:45;;;;;;;;;;;;;;;21.45;42.73;99664.47;7281488;19;153632;-58
2022/04/06 07:56:17;;;;;;;;;;;;;;;21.42;42.74;99674.41;7276472;19;153965;-58
2022/04/06 07:58:44;;;;;;;;;;;;;;;21.40;42.73;99673.94;7281337;19;151661;-58
2022/04/06 08:01:11;;;;;;;;;;;;;;;21.37;42.43;99671.81;7280565;19;152561;-58
2022/04/06 08:03:37;;;;;;;;;;;;;;;21.36;42.63;99667.34;7278980;19;153502;-58
2022/04/06 08:06:04;;;;;;;;;;;;;;;21.33;42.56;99667.22;7281126;19;151727;-58
2022/04/06 08:08:32;;;;;;;;;;;;;;;21.30;42.76;99654.72;7285687;19;152635;-58
2022/04/06 08:10:58;;;;;;;;;;;;;;;21.29;42.73;99650.25;7277409;19;152031;-58
2022/04/06 08:13:25;;;;;;;;;;;;;;;21.30;42.67;99654.72;7275742;19;153763;-58
2022/04/06 08:15:54;;;;;;;;;;;;;;;21.34;42.66;99652.84;7279757;19;154223;-58
2022/04/06 08:18:22;;;;;;;;;;;;;;;21.35;42.41;99648.84;7279224;19;151933;-58
2022/04/06 08:20:49;;;;;;;;;;;;;;;21.38;42.90;99636.94;7279285;19;153146;-57
2022/04/06 08:23:17;;;;;;;;;;;;;;;21.41;42.59;99646.66;7279599;19;153634;-58
2022/04/06 08:25:44;;;;;;;;;;;;;;;21.42;42.94;99649.13;7277765;19;151902;-58
2022/04/06 08:28:10;;;;;;;;;;;;;;;21.45;42.53;99640.00;7277977;19;152892;-56
2022/04/06 08:30:41;;;;;;;;;;;;;;;21.46;42.64;99638.84;7284221;19;153431;-57
2022/04/06 08:33:09;;;;;;;;;;;;;;;21.45;42.50;99631.56;7279239;19;152892;-57
2022/04/06 08:35:36;;;;;;;;;;;;;;;21.45;42.48;99628.75;7276989;19;152683;-57
2022/04/06 08:38:05;;;;;;;;;;;;;;;21.43;42.00;99633.91;7280432;19;151905;-56
2022/04/06 08:40:33;;;;;;;;;;;;;;;21.43;42.02;99633.09;7279027;19;153419;-56
2022/04/06 08:43:00;;;;;;;;;;;;;;;21.42;41.95;99625.81;7279338;19;152686;-56
2022/04/06 08:45:28;;;;;;;;;;;;;;;21.40;41.85;99625.34;7277130;19;152230;-57
2022/04/06 08:47:57;;;;;;;;;;;;;;;21.40;41.95;99625.34;7276890;19;152575;-57
2022/04/06 08:50:27;;;;;;;;;;;;;;;21.38;41.96;99622.88;7277013;19;153919;-56
2022/04/06 08:52:55;;;;;;;;;;;;;;;21.36;41.81;99622.41;7287468;19;152231;-57
2022/04/06 08:55:27;;;;;;;;;;;;;;;21.33;41.77;99620.28;7276920;19;153272;-57
2022/04/06 08:57:55;;;;;;;;;;;;;;;21.30;41.79;99627.41;7278609;19;152036;-56
2022/04/06 09:00:21;;;;;;;;;;;;;;;21.29;41.91;99624.97;7274518;19;153319;-57
2022/04/06 09:02:48;;;;;;;;;;;;;;;21.25;41.64;99612.78;7278309;19;153874;-56
2022/04/06 09:05:19;;;;;;;;;;;;;;;21.23;42.05;99618.75;7276515;19;151874;-59
2022/04/06 09:07:51;;;;;;;;;;;;;;;21.20;42.04;99624.22;7276849;19;153702;-58
2022/04/06 09:10:28;;;;;;;;;;;;;;;21.18;42.10;99618.94;7278028;19;153804;-57
2022/04/06 09:13:10;;;;;;;;;;;;;;;21.16;41.99;99612.03;7284214;19;152337;-56
2022/04/06 09:15:36;;;;;;;;;;;;;;;21.15;41.65;99627.25;7276820;19;154377;-56
2022/04/06 09:18:03;;;;;;;;;;;;;;;21.11;42.14;99621.47;7277430;19;151943;-58
2022/04/06 09:20:31;;;;;;;;;;;;;;;21.11;42.00;99626.28;7276254;19;153455;-58
2022/04/06 09:23:09;;;;;;;;;;;;;;;21.09;41.88;99614.53;7276763;19;154035;-60
2022/04/06 09:25:37;;;;;;;;;;;;;;;21.09;42.08;99609.75;7275773;19;152167;-58
2022/04/06 09:28:08;;;;;;;;;;;;;;;21.06;41.73;99621.69;7277126;19;153803;-58
2022/04/06 09:30:38;;;;;;;;;;;;;;;21.07;42.11;99614.91;7277691;19;154654;-58
2022/04/06 09:33:11;;;;;;;;;;;;;;;21.05;41.62;99614.41;7276948;19;152089;-58
2022/04/06 09:35:37;;;;;;;;;;;;;;;21.06;42.05;99615.25;7285175;19;153626;-58
2022/04/06 09:38:25;;;;;;;;;;;;;;;21.01;41.65;99604.22;7277564;19;151769;-57
2022/04/06 09:41:00;;;;;;;;;;;;;;;21.01;41.90;99610.66;7278684;19;153755;-58
2022/04/06 09:43:28;;;;;;;;;;;;;;;21.00;41.99;99605.38;7274693;19;153313;-58
2022/04/06 09:48:52;;;;;;;;;;;;;;;20.97;41.91;99556.34;7276673;19;154807;-57
2022/04/06 09:51:19;;;;;;;;;;;;;;;20.84;41.81;99600.41;7277592;19;153529;-57
2022/04/06 09:53:48;;;;;;;;;;;;;;;20.58;41.95;99596.19;7276879;19;152177;-55
2022/04/06 09:56:16;;;;;;;;;;;;;;;20.65;41.80;99588.03;7278658;19;153178;-55
2022/04/06 09:58:43;;;;;;;;;;;;;;;20.66;42.22;99584.06;7251890;19;153528;-55
2022/04/06 10:01:14;;;;;;;;;;;;;;;20.64;42.05;99572.34;7270024;19;152756;-55
2022/04/06 10:03:43;;;;;;;;;;;;;;;20.65;41.74;99569.19;7275475;19;153431;-55
2022/04/06 10:06:10;;;;;;;;;;;;;;;20.64;41.76;99572.34;7271667;19;152101;-55
2022/04/06 10:08:38;;;;;;;;;;;;;;;20.64;42.19;99549.88;7275726;19;152564;-56
2022/04/06 10:11:05;;;;;;;;;;;;;;;20.59;42.13;99547.28;7277544;19;153216;-56
2022/04/06 10:13:32;;;;;;;;;;;;;;;20.57;42.01;99549.63;7282025;19;152393;-56
2022/04/06 10:16:20;;;;;;;;;;;;;;;20.58;41.76;99540.06;7280955;19;156263;-55
2022/04/06 10:18:48;;;;;;;;;;;;;;;20.51;41.71;99539.75;7280810;19;153729;-56
2022/04/06 10:21:28;;;;;;;;;;;;;;;20.57;41.65;99536.41;7290222;19;151905;-59
2022/04/06 10:24:15;;;;;;;;;;;;;;;20.65;41.78;99535.53;7278151;19;153900;-56
2022/04/06 10:26:46;;;;;;;;;;;;;;;20.56;41.84;99537.56;7281247;19;151767;-55
2022/04/06 10:29:14;;;;;;;;;;;;;;;20.56;41.78;99522.72;7281780;19;153291;-55
2022/04/06 10:31:46;;;;;;;;;;;;;;;20.52;41.58;99524.56;7281829;19;153770;-55
2022/04/06 10:34:19;;;;;;;;;;;;;;;20.46;41.85;99504.31;7282045;19;151992;-56
2022/04/06 10:37:21;;;;;;;;;;;;;;;20.47;41.69;99513.56;7282963;19;153441;-55
2022/04/06 10:39:58;;;;;;;;;;;;;;;20.39;41.68;99512.47;7275588;19;153502;-56
2022/04/06 10:42:33;;;;;;;;;;;;;;;20.36;41.55;99504.72;7281088;19;151890;-55
2022/04/06 10:45:00;;;;;;;;;;;;;;;20.33;41.30;99499.81;7288678;19;152490;-56
2022/04/06 10:47:29;;;;;;;;;;;;;;;20.31;41.61;99508.56;7280525;19;153114;-55
2022/04/06 10:50:19;;;;;;;;;;;;;;;20.29;41.30;99487.59;7282124;19;153068;-55
2022/04/06 10:52:45;;;;;;;;;;;;;;;20.31;40.97;99474.06;7279291;19;154179;-55
2022/04/06 10:55:23;;;;;;;;;;;;;;;20.34;40.91;99468.63;7281918;19;151723;-56
2022/04/06 10:57:57;;;;;;;;;;;;;;;20.31;40.89;99462.84;7281300;19;153208;-55
2022/04/06 11:00:25;;;;;;;;;;;;;;;20.32;41.07;99459.72;7276967;19;154280;-56
2022/04/06 11:02:52;;;;;;;;;;;;;;;20.35;41.23;99464.63;7279488;19;152558;-55
2022/04/06 11:05:39;;;;;;;;;;;;;;;20.39;40.97;99447.97;7281825;19;152891;-55
2022/04/06 11:11:11;;;;;;;;;;;;;;;20.49;40.80;99452.31;7281275;19;153586;-55
2022/04/06 11:13:38;;;;;;;;;;;;;;;20.53;40.79;99447.66;7280706;19;153334;-55
2022/04/06 11:16:05;;;;;;;;;;;;;;;20.55;40.46;99434.91;7279452;19;152257;-55
2022/04/06 11:18:47;;;;;;;;;;;;;;;20.56;40.56;99419.72;7281516;19;155609;-56
2022/04/06 11:21:15;;;;;;;;;;;;;;;20.59;40.32;99423.81;7280273;19;153707;-56
2022/04/06 11:23:42;;;;;;;;;;;;;;;20.62;40.63;99423.97;7281562;19;151746;-55
2022/04/06 11:26:09;;;;;;;;;;;;;;;20.63;40.39;99421.94;7280918;19;152585;-57
2022/04/06 11:28:36;;;;;;;;;;;;;;;20.65;40.36;99444.88;7287709;19;153387;-55
2022/04/06 11:31:03;;;;;;;;;;;;;;;20.65;40.58;99423.25;7280909;19;153011;-56
2022/04/06 11:33:40;;;;;;;;;;;;;;;20.66;40.77;99407.25;7278338;19;153716;-55
2022/04/06 11:36:17;;;;;;;;;;;;;;;20.67;40.64;99397.66;7282385;19;152353;-56
2022/04/06 11:38:48;;;;;;;;;;;;;;;20.67;40.46;99397.66;7277139;19;153392;-56
2022/04/06 11:41:15;;;;;;;;;;;;;;;20.69;40.71;99387.72;7279994;19;153804;-55
2022/04/06 11:43:43;;;;;;;;;;;;;;;20.71;40.58;99390.19;7278412;19;151872;-56
2022/04/06 11:46:10;;;;;;;;;;;;;;;20.75;40.48;99375.09;7280166;19;154110;-56
2022/04/06 11:48:39;;;;;;;;;;;;;;;20.78;40.14;99365.16;7279778;19;154357;-55
2022/04/06 11:51:06;;;;;;;;;;;;;;;20.75;40.58;99337.81;7285576;19;151668;-55
2022/04/06 11:53:34;;;;;;;;;;;;;;;20.78;40.18;99349.16;7279660;19;153344;-55
2022/04/06 11:56:03;;;;;;;;;;;;;;;20.75;40.42;99335.81;7279645;19;151745;-55
2022/04/06 11:58:32;;;;;;;;;;;;;;;20.76;40.21;99337.44;7279810;19;153601;-55
2022/04/06 12:01:00;;;;;;;;;;;;;;;20.75;40.29;99333.00;7275960;19;156892;-55
2022/04/06 12:03:27;;;;;;;;;;;;;;;20.78;40.46;99326.69;7276428;19;151869;-55
2022/04/06 12:05:55;;;;;;;;;;;;;;;20.77;40.29;99325.03;7279243;19;152583;-56
2022/04/06 12:08:23;;;;;;;;;;;;;;;20.78;40.43;99326.69;7279101;19;153524;-55
2022/04/06 12:10:51;;;;;;;;;;;;;;;20.78;40.29;99321.06;7278101;19;151843;-56
2022/04/06 12:13:18;;;;;;;;;;;;;;;20.77;40.00;99332.63;7282636;19;152726;-55
2022/04/06 12:15:48;;;;;;;;;;;;;;;20.76;40.21;99334.63;7279113;19;152319;-56
2022/04/06 12:18:19;;;;;;;;;;;;;;;20.73;40.00;99346.56;7279727;19;152680;-55
2022/04/06 12:20:46;;;;;;;;;;;;;;;20.68;40.50;99341.16;7278211;19;154254;-55
2022/04/06 12:23:14;;;;;;;;;;;;;;;20.67;40.00;99364.00;7279675;19;152992;-56
2022/04/06 12:25:41;;;;;;;;;;;;;;;20.63;40.20;99351.78;7280413;19;153908;-55
2022/04/06 12:28:24;;;;;;;;;;;;;;;20.61;40.08;99343.75;7278573;19;154075;-55
2022/04/06 12:31:01;;;;;;;;;;;;;;;20.57;40.28;99342.81;7280108;19;151666;-55
2022/04/06 12:33:38;;;;;;;;;;;;;;;20.59;40.61;99350.84;7274568;19;153459;-55
2022/04/06 12:36:04;;;;;;;;;;;;;;;20.55;40.38;99342.31;7284325;19;153997;-55
2022/04/06 12:38:31;;;;;;;;;;;;;;;20.53;40.15;99311.00;7279526;19;153292;-55
2022/04/06 12:41:08;;;;;;;;;;;;;;;20.54;40.16;99312.63;7278224;19;153519;-56
2022/04/06 12:43:46;;;;;;;;;;;;;;;20.50;40.54;99305.25;7277217;19;151934;-56
2022/04/06 12:46:13;;;;;;;;;;;;;;;20.49;40.67;99317.66;7278612;19;152744;-55
2022/04/06 12:48:40;;;;;;;;;;;;;;;20.46;40.69;99305.13;7274167;19;154551;-56
2022/04/06 12:51:27;;;;;;;;;;;;;;;20.46;40.52;99284.66;7277932;19;154728;-55